createdAt,value
2023-02-01T00:01:27.687Z,51.30
2023-02-01T00:03:56.319Z,47.83
2023-02-01T00:06:24.133Z,42.67
2023-02-01T00:08:56.201Z,42.88
2023-02-01T00:11:25.181Z,44.22
2023-02-01T00:13:53.685Z,42.13
2023-02-01T00:16:25.110Z,42.42
2023-02-01T00:18:59.307Z,42.07
2023-02-01T00:21:28.834Z,42.67
2023-02-01T00:23:57.851Z,41.58
2023-02-01T00:26:33.735Z,40.20
2023-02-01T00:29:04.576Z,39.25
2023-02-01T00:31:32.802Z,39.25
2023-02-01T00:34:01.681Z,39.00
2023-02-01T00:36:30.508Z,39.75
2023-02-01T00:38:58.811Z,37.58
2023-02-01T00:41:27.296Z,39.50
2023-02-01T00:43:55.581Z,39.10
2023-02-01T00:46:23.958Z,39.25
2023-02-01T00:48:52.554Z,44.00
2023-02-01T00:51:23.522Z,40.30
2023-02-01T00:53:52.504Z,46.53
2023-02-01T00:56:20.572Z,48.53
2023-02-01T00:58:51.316Z,46.83
2023-02-01T01:01:25.478Z,44.10
2023-02-01T01:04:00.089Z,44.00
2023-02-01T01:06:31.244Z,43.30
2023-02-01T01:09:02.399Z,43.25
2023-02-01T01:11:33.020Z,40.80
2023-02-01T01:14:05.656Z,39.83
2023-02-01T01:16:34.729Z,39.58
2023-02-01T01:19:03.953Z,38.72
2023-02-01T01:21:32.514Z,37.95
2023-02-01T01:24:01.058Z,37.38
2023-02-01T01:26:30.869Z,38.90
2023-02-01T01:29:00.625Z,39.58
2023-02-01T01:31:29.159Z,43.95
2023-02-01T01:33:59.852Z,45.38
2023-02-01T01:36:29.372Z,47.10
2023-02-01T01:38:58.132Z,46.28
2023-02-01T01:41:30.144Z,45.20
2023-02-01T01:44:04.121Z,47.55
2023-02-01T01:46:42.113Z,45.88
2023-02-01T01:49:18.878Z,46.47
2023-02-01T01:51:54.663Z,45.45
2023-02-01T01:54:30.308Z,44.47
2023-02-01T01:57:03.441Z,44.63
2023-02-01T01:59:33.821Z,44.47
2023-02-01T02:02:01.918Z,42.13
2023-02-01T02:04:38.483Z,41.17
2023-02-01T02:07:13.075Z,38.40
2023-02-01T02:09:48.199Z,37.33
2023-02-01T02:12:22.799Z,36.08
2023-02-01T02:14:55.968Z,34.47
2023-02-01T02:17:37.783Z,34.72
2023-02-01T02:20:53.611Z,33.42
2023-02-01T02:23:40.343Z,36.47
2023-02-01T02:26:26.753Z,36.38
2023-02-01T02:28:57.574Z,37.17
2023-02-01T02:32:03.363Z,40.55
2023-02-01T02:34:40.108Z,42.60
2023-02-01T02:37:29.710Z,42.53
2023-02-01T02:39:57.629Z,42.13
2023-02-01T02:43:05.928Z,42.40
2023-02-01T02:46:05.968Z,42.58
2023-02-01T02:48:50.239Z,42.67
2023-02-01T02:51:43.704Z,40.72
2023-02-01T02:54:38.578Z,39.08
2023-02-01T02:57:29.427Z,39.90
2023-02-01T03:00:23.517Z,38.22
2023-02-01T03:03:10.935Z,39.13
2023-02-01T03:05:45.845Z,36.83
2023-02-01T03:08:17.532Z,37.42
2023-02-01T03:10:53.529Z,35.33
2023-02-01T03:13:38.407Z,36.40
2023-02-01T03:16:17.760Z,36.25
2023-02-01T03:18:55.036Z,38.92
2023-02-01T03:21:40.373Z,41.05
2023-02-01T03:24:24.315Z,39.60
2023-02-01T03:26:56.812Z,40.97
2023-02-01T03:29:36.409Z,40.08
2023-02-01T03:32:05.301Z,40.58
2023-02-01T03:34:33.871Z,42.40
2023-02-01T03:37:07.960Z,39.65
2023-02-01T03:40:08.347Z,40.13
2023-02-01T03:42:47.929Z,39.72
2023-02-01T03:45:24.373Z,41.35
2023-02-01T03:47:57.930Z,40.88
2023-02-01T03:50:29.382Z,39.70
2023-02-01T03:53:06.692Z,39.45
2023-02-01T03:55:38.137Z,38.50
2023-02-01T03:58:17.864Z,38.97
2023-02-01T04:00:51.757Z,40.17
2023-02-01T04:03:20.255Z,36.78
2023-02-01T04:05:48.075Z,34.58
2023-02-01T04:08:18.814Z,34.40
2023-02-01T04:10:47.332Z,35.53
2023-02-01T04:13:16.159Z,34.42
2023-02-01T04:15:44.478Z,32.20
2023-02-01T04:18:12.974Z,32.72
2023-02-01T04:20:40.834Z,33.65
2023-02-01T04:23:09.002Z,32.90
2023-02-01T04:25:36.995Z,33.55
2023-02-01T04:28:06.290Z,30.85
2023-02-01T04:30:34.717Z,29.08
2023-02-01T04:33:06.544Z,28.33
2023-02-01T04:35:35.409Z,27.15
2023-02-01T04:38:03.681Z,26.75
2023-02-01T04:40:31.608Z,26.50
2023-02-01T04:43:02.533Z,23.33
2023-02-01T04:45:30.533Z,22.60
2023-02-01T04:47:59.655Z,18.92
2023-02-01T04:50:27.621Z,18.27
2023-02-01T04:52:55.745Z,18.70
2023-02-01T04:55:23.727Z,18.58
2023-02-01T04:57:52.022Z,19.95
2023-02-01T05:00:21.917Z,19.73
2023-02-01T05:02:50.640Z,20.38
2023-02-01T05:05:18.550Z,20.42
2023-02-01T05:07:48.687Z,20.05
2023-02-01T05:10:18.019Z,19.40
2023-02-01T05:13:05.087Z,20.50
2023-02-01T05:15:33.205Z,20.65
2023-02-01T05:18:01.344Z,19.60
2023-02-01T05:20:29.247Z,20.23
2023-02-01T05:22:57.704Z,21.00
2023-02-01T05:25:25.695Z,18.63
2023-02-01T05:27:55.015Z,19.50
2023-02-01T05:30:23.431Z,17.73
2023-02-01T05:32:53.750Z,17.73
2023-02-01T05:35:21.928Z,18.23
2023-02-01T05:37:50.155Z,19.30
2023-02-01T05:40:18.375Z,17.58
2023-02-01T05:42:46.709Z,18.13
2023-02-01T05:45:15.954Z,19.17
2023-02-01T05:47:44.143Z,18.70
2023-02-01T05:50:12.076Z,18.10
2023-02-01T05:52:40.279Z,18.02
2023-02-01T05:55:08.623Z,19.35
2023-02-01T05:57:36.842Z,17.48
2023-02-01T06:00:05.565Z,22.15
2023-02-01T06:02:41.975Z,22.25
2023-02-01T06:05:10.267Z,19.40
2023-02-01T06:07:39.485Z,22.02
2023-02-01T06:10:09.679Z,24.23
2023-02-01T06:12:38.238Z,24.17
2023-02-01T06:15:07.087Z,23.33
2023-02-01T06:17:35.602Z,24.92
2023-02-01T06:20:04.764Z,24.70
2023-02-01T06:22:34.460Z,24.58
2023-02-01T06:25:02.364Z,24.83
2023-02-01T06:27:31.196Z,24.90
2023-02-01T06:29:59.103Z,23.88
2023-02-01T06:32:28.659Z,24.27
2023-02-01T06:34:57.255Z,25.25
2023-02-01T06:37:26.618Z,24.65
2023-02-01T06:39:54.715Z,23.48
2023-02-01T06:42:24.272Z,26.25
2023-02-01T06:44:53.304Z,25.13
2023-02-01T06:47:21.461Z,25.30
2023-02-01T06:49:49.452Z,25.67
2023-02-01T06:52:17.619Z,24.70
2023-02-01T06:54:45.615Z,23.67
2023-02-01T06:57:13.844Z,23.60
2023-02-01T06:59:41.763Z,24.58
2023-02-01T07:02:13.172Z,25.63
2023-02-01T07:04:41.353Z,23.98
2023-02-01T07:07:09.582Z,24.48
2023-02-01T07:09:37.566Z,24.48
2023-02-01T07:12:06.129Z,25.50
2023-02-01T07:14:34.133Z,26.05
2023-02-01T07:17:02.643Z,25.65
2023-02-01T07:19:30.699Z,25.52
2023-02-01T07:21:58.806Z,25.08
2023-02-01T07:24:26.764Z,25.85
2023-02-01T07:26:55.078Z,23.42
2023-02-01T07:29:23.318Z,23.35
2023-02-01T07:31:51.476Z,24.25
2023-02-01T07:34:19.556Z,21.40
2023-02-01T07:36:48.411Z,22.33
2023-02-01T07:39:17.989Z,19.08
2023-02-01T07:41:47.331Z,21.30
2023-02-01T07:44:15.317Z,20.65
2023-02-01T07:46:44.548Z,20.05
2023-02-01T07:49:13.612Z,20.23
2023-02-01T07:51:41.799Z,20.17
2023-02-01T07:54:09.887Z,19.55
2023-02-01T07:56:38.207Z,21.38
2023-02-01T07:59:07.565Z,21.35
2023-02-01T08:01:36.863Z,19.67
2023-02-01T08:04:05.224Z,20.15
2023-02-01T08:06:35.842Z,19.23
2023-02-01T08:09:05.166Z,19.58
2023-02-01T08:11:34.288Z,20.65
2023-02-01T08:14:02.356Z,21.10
2023-02-01T08:16:30.824Z,23.00
2023-02-01T08:19:00.299Z,20.63
2023-02-01T08:21:38.034Z,21.35
2023-02-01T08:24:08.093Z,20.95
2023-02-01T08:26:36.574Z,21.48
2023-02-01T08:29:08.263Z,20.60
2023-02-01T08:31:36.807Z,20.55
2023-02-01T08:34:09.635Z,21.80
2023-02-01T08:36:39.497Z,21.70
2023-02-01T08:39:10.306Z,21.33
2023-02-01T08:41:39.382Z,22.38
2023-02-01T08:44:07.232Z,21.30
2023-02-01T08:46:35.645Z,20.58
2023-02-01T08:49:03.586Z,18.65
2023-02-01T08:51:31.859Z,19.25
2023-02-01T08:53:59.733Z,18.63
2023-02-01T08:56:28.101Z,19.88
2023-02-01T08:58:55.966Z,20.77
2023-02-01T09:01:24.854Z,18.77
2023-02-01T09:03:52.768Z,18.77
2023-02-01T09:06:21.008Z,18.20
2023-02-01T09:08:49.047Z,17.85
2023-02-01T09:11:20.652Z,18.95
2023-02-01T09:13:49.643Z,19.00
2023-02-01T09:16:18.883Z,19.08
2023-02-01T09:18:56.196Z,20.08
2023-02-01T09:21:30.834Z,19.27
2023-02-01T09:23:58.891Z,19.15
2023-02-01T09:26:32.457Z,19.65
2023-02-01T09:29:02.332Z,19.75
2023-02-01T09:31:32.411Z,20.17
2023-02-01T09:34:00.497Z,19.58
2023-02-01T09:36:31.100Z,18.55
2023-02-01T09:38:59.730Z,19.80
2023-02-01T09:41:58.266Z,20.08
2023-02-01T09:44:44.861Z,18.45
2023-02-01T09:47:20.526Z,18.60
2023-02-01T09:50:13.099Z,19.08
2023-02-01T09:52:47.043Z,18.00
2023-02-01T09:55:21.066Z,17.73
2023-02-01T09:58:01.703Z,18.75
2023-02-01T10:00:39.748Z,19.02
2023-02-01T10:03:15.349Z,18.52
2023-02-01T10:05:53.139Z,19.90
2023-02-01T10:08:26.142Z,19.83
2023-02-01T10:11:03.857Z,19.25
2023-02-01T10:14:33.770Z,19.52
2023-02-01T10:17:10.421Z,20.55
2023-02-01T10:20:00.228Z,17.52
2023-02-01T10:22:51.780Z,17.70
2023-02-01T10:25:26.443Z,16.02
2023-02-01T10:27:54.937Z,18.13
2023-02-01T10:30:25.656Z,15.20
2023-02-01T10:33:02.877Z,16.00
2023-02-01T10:35:37.832Z,15.32
2023-02-01T10:38:17.070Z,14.98
2023-02-01T10:40:45.680Z,17.20
2023-02-01T10:43:13.804Z,16.20
2023-02-01T10:45:43.830Z,15.32
2023-02-01T10:48:12.181Z,15.40
2023-02-01T10:50:48.257Z,14.73
2023-02-01T10:55:57.477Z,14.88
2023-02-01T10:58:32.934Z,16.00
2023-02-01T11:03:40.587Z,15.35
2023-02-01T11:06:36.796Z,15.93
2023-02-01T11:09:07.435Z,16.40
2023-02-01T11:11:48.290Z,16.15
2023-02-01T11:14:25.415Z,16.67
2023-02-01T11:16:56.440Z,15.63
2023-02-01T11:19:24.980Z,15.77
2023-02-01T11:21:55.368Z,16.45
2023-02-01T11:24:34.336Z,16.30
2023-02-01T11:27:18.816Z,17.50
2023-02-01T11:29:58.398Z,15.93
2023-02-01T11:32:29.160Z,17.02
2023-02-01T11:35:04.961Z,17.20
2023-02-01T11:37:38.560Z,17.40
2023-02-01T11:40:19.646Z,18.13
2023-02-01T11:43:08.525Z,18.05
2023-02-01T11:45:38.761Z,19.00
2023-02-01T11:48:26.221Z,18.30
2023-02-01T11:51:31.572Z,18.52
2023-02-01T11:54:09.397Z,18.35
2023-02-01T11:56:38.888Z,19.35
2023-02-01T11:59:18.350Z,19.70
2023-02-01T12:02:18.136Z,19.00
2023-02-01T12:05:19.774Z,20.40
2023-02-01T12:08:31.609Z,21.02
2023-02-01T12:11:18.446Z,21.23
2023-02-01T12:13:46.420Z,22.67
2023-02-01T12:16:38.741Z,20.65
2023-02-01T12:19:49.679Z,22.23
2023-02-01T12:22:31.180Z,22.10
2023-02-01T12:25:10.711Z,22.33
2023-02-01T12:28:02.459Z,25.45
2023-02-01T12:30:55.777Z,25.63
2023-02-01T12:33:39.260Z,27.60
2023-02-01T12:36:45.153Z,27.55
2023-02-01T12:39:34.347Z,29.17
2023-02-01T12:42:25.868Z,30.50
2023-02-01T12:45:08.265Z,29.30
2023-02-01T12:48:01.498Z,29.27
2023-02-01T12:50:37.899Z,29.38
2023-02-01T12:53:32.155Z,37.17
2023-02-01T12:56:08.509Z,29.58
2023-02-01T12:58:48.300Z,30.80
2023-02-01T13:01:35.210Z,29.45
2023-02-01T13:04:13.362Z,28.73
2023-02-01T13:06:49.133Z,29.38
2023-02-01T13:09:19.785Z,29.07
2023-02-01T13:11:52.266Z,29.90
2023-02-01T13:14:47.689Z,27.77
2023-02-01T13:17:26.459Z,27.67
2023-02-01T13:20:01.074Z,27.52
2023-02-01T13:22:47.508Z,27.27
2023-02-01T13:25:26.073Z,25.17
2023-02-01T13:28:00.697Z,26.48
2023-02-01T13:30:38.490Z,26.40
2023-02-01T13:33:55.385Z,27.17
2023-02-01T13:36:46.721Z,27.35
2023-02-01T13:39:34.311Z,27.45
2023-02-01T13:42:07.151Z,27.52
2023-02-01T13:44:41.689Z,27.20
2023-02-01T13:47:32.988Z,27.80
2023-02-01T13:50:20.951Z,24.92
2023-02-01T13:52:58.360Z,26.80
2023-02-01T13:55:51.948Z,27.13
2023-02-01T13:58:31.243Z,27.02
2023-02-01T14:01:25.197Z,27.70
2023-02-01T14:04:07.053Z,24.83
2023-02-01T14:06:46.146Z,25.33
2023-02-01T14:09:18.374Z,25.48
2023-02-01T14:11:59.914Z,25.73
2023-02-01T14:14:28.001Z,23.30
2023-02-01T14:16:56.359Z,24.02
2023-02-01T14:19:28.522Z,23.45
2023-02-01T14:22:02.853Z,23.40
2023-02-01T14:24:34.104Z,23.67
2023-02-01T14:27:18.321Z,23.65
2023-02-01T14:29:59.186Z,22.42
2023-02-01T14:32:35.530Z,22.92
2023-02-01T14:35:07.742Z,23.30
2023-02-01T14:37:39.932Z,22.60
2023-02-01T14:40:21.391Z,24.67
2023-02-01T14:42:53.071Z,25.63
2023-02-01T14:45:23.268Z,26.45
2023-02-01T14:48:07.811Z,25.92
2023-02-01T14:50:42.931Z,26.20
2023-02-01T14:53:14.509Z,29.20
2023-02-01T14:55:49.274Z,27.50
2023-02-01T14:58:50.215Z,27.98
2023-02-01T15:01:25.797Z,25.25
2023-02-01T15:04:16.348Z,24.77
2023-02-01T15:06:52.773Z,23.35
2023-02-01T15:09:38.055Z,24.15
2023-02-01T15:12:12.088Z,24.17
2023-02-01T15:14:44.135Z,23.20
2023-02-01T15:17:24.517Z,21.65
2023-02-01T15:20:00.766Z,23.00
2023-02-01T15:22:31.010Z,25.73
2023-02-01T15:25:01.552Z,28.05
2023-02-01T15:27:33.324Z,29.17
2023-02-01T15:30:28.329Z,28.17
2023-02-01T15:33:16.011Z,27.75
2023-02-01T15:35:47.952Z,27.02
2023-02-01T15:38:25.561Z,27.65
2023-02-01T15:41:20.761Z,29.02
2023-02-01T15:44:13.775Z,27.73
2023-02-01T15:46:47.008Z,27.77
2023-02-01T15:49:31.734Z,27.17
2023-02-01T15:52:02.456Z,27.90
2023-02-01T15:54:39.275Z,28.25
2023-02-01T15:57:10.237Z,27.52
2023-02-01T15:59:45.284Z,27.23
2023-02-01T16:03:06.371Z,27.52
2023-02-01T16:05:41.297Z,27.38
2023-02-01T16:08:23.744Z,27.38
2023-02-01T16:10:54.519Z,26.90
2023-02-01T16:13:23.113Z,27.77
2023-02-01T16:15:51.329Z,28.45
2023-02-01T16:18:25.876Z,30.58
2023-02-01T16:20:54.068Z,29.38
2023-02-01T16:23:22.481Z,29.70
2023-02-01T16:25:50.407Z,28.70
2023-02-01T16:28:18.558Z,27.20
2023-02-01T16:30:46.553Z,26.90
2023-02-01T16:33:20.877Z,28.58
2023-02-01T16:35:49.812Z,28.00
2023-02-01T16:38:22.599Z,29.40
2023-02-01T16:40:51.616Z,27.58
2023-02-01T16:43:22.736Z,28.88
2023-02-01T16:45:53.608Z,27.98
2023-02-01T16:48:36.602Z,30.02
2023-02-01T16:51:10.895Z,30.00
2023-02-01T16:53:53.464Z,29.00
2023-02-01T16:56:26.270Z,28.13
2023-02-01T16:58:55.615Z,30.50
2023-02-01T17:01:23.902Z,28.08
2023-02-01T17:03:53.058Z,29.00
2023-02-01T17:06:24.003Z,30.42
2023-02-01T17:08:55.923Z,28.38
2023-02-01T17:11:24.811Z,27.63
2023-02-01T17:13:54.236Z,28.42
2023-02-01T17:16:28.470Z,28.65
2023-02-01T17:19:05.359Z,30.83
2023-02-01T17:21:44.887Z,30.07
2023-02-01T17:24:18.129Z,28.08
2023-02-01T17:26:48.592Z,29.23
2023-02-01T17:29:19.080Z,27.17
2023-02-01T17:31:55.262Z,27.70
2023-02-01T17:34:24.882Z,27.73
2023-02-01T17:36:53.135Z,26.45
2023-02-01T17:39:40.123Z,27.00
2023-02-01T17:42:12.394Z,27.70
2023-02-01T17:44:41.035Z,27.58
2023-02-01T17:47:08.866Z,26.60
2023-02-01T17:49:39.198Z,27.00
2023-02-01T17:52:09.662Z,27.25
2023-02-01T17:54:38.546Z,27.13
2023-02-01T17:57:13.161Z,27.83
2023-02-01T17:59:42.696Z,27.25
2023-02-01T18:02:25.547Z,27.58
2023-02-01T18:04:54.272Z,26.08
2023-02-01T18:07:22.369Z,27.63
2023-02-01T18:09:51.624Z,28.30
2023-02-01T18:12:23.896Z,27.95
2023-02-01T18:14:52.431Z,28.73
2023-02-01T18:17:20.540Z,28.20
2023-02-01T18:19:49.244Z,29.80
2023-02-01T18:22:22.257Z,30.13
2023-02-01T18:24:52.341Z,27.67
2023-02-01T18:27:20.768Z,28.77
2023-02-01T18:29:49.110Z,29.17
2023-02-01T18:32:17.152Z,28.40
2023-02-01T18:34:46.721Z,26.40
2023-02-01T18:37:14.620Z,29.33
2023-02-01T18:39:42.966Z,28.33
2023-02-01T18:42:12.194Z,29.23
2023-02-01T18:44:40.659Z,29.85
2023-02-01T18:47:08.863Z,27.50
2023-02-01T18:49:37.954Z,27.65
2023-02-01T18:52:06.904Z,27.38
2023-02-01T18:54:35.344Z,28.95
2023-02-01T18:57:03.754Z,30.70
2023-02-01T18:59:32.081Z,29.08
2023-02-01T19:02:00.004Z,29.05
2023-02-01T19:04:28.374Z,29.38
2023-02-01T19:06:56.657Z,27.40
2023-02-01T19:09:25.535Z,27.70
2023-02-01T19:11:53.413Z,26.23
2023-02-01T19:14:22.816Z,26.50
2023-02-01T19:16:51.650Z,26.70
2023-02-01T19:19:20.129Z,27.70
2023-02-01T19:21:48.222Z,27.98
2023-02-01T19:24:17.151Z,26.75
2023-02-01T19:26:46.339Z,28.35
2023-02-01T19:29:15.448Z,27.73
2023-02-01T19:31:44.811Z,29.02
2023-02-01T19:34:13.456Z,30.65
2023-02-01T19:36:43.945Z,28.33
2023-02-01T19:39:13.208Z,29.73
2023-02-01T19:41:41.238Z,28.58
2023-02-01T19:44:10.606Z,28.13
2023-02-01T19:46:39.996Z,29.13
2023-02-01T19:49:13.295Z,28.33
2023-02-01T19:51:43.112Z,27.88
2023-02-01T19:54:13.245Z,28.23
2023-02-01T19:56:41.548Z,27.20
2023-02-01T19:59:13.412Z,27.63
2023-02-01T20:01:41.750Z,24.88
2023-02-01T20:04:12.094Z,26.08
2023-02-01T20:06:49.148Z,25.80
2023-02-01T20:09:23.529Z,26.17
2023-02-01T20:11:54.225Z,26.38
2023-02-01T20:14:26.207Z,26.15
2023-02-01T20:16:54.188Z,26.08
2023-02-01T20:19:22.748Z,25.20
2023-02-01T20:21:50.572Z,23.85
2023-02-01T20:24:18.898Z,24.60
2023-02-01T20:26:49.407Z,24.52
2023-02-01T20:29:19.612Z,23.98
2023-02-01T20:31:48.429Z,25.63
2023-02-01T20:34:16.722Z,25.33
2023-02-01T20:36:47.035Z,24.90
2023-02-01T20:39:15.543Z,26.77
2023-02-01T20:41:43.922Z,29.15
2023-02-01T20:44:14.405Z,26.55
2023-02-01T20:46:42.486Z,26.17
2023-02-01T20:49:10.845Z,27.27
2023-02-01T20:51:38.740Z,26.08
2023-02-01T20:54:06.996Z,26.05
2023-02-01T20:56:34.908Z,26.30
2023-02-01T20:59:11.051Z,28.15
2023-02-01T21:01:51.400Z,28.30
2023-02-01T21:04:22.534Z,28.70
2023-02-01T21:06:52.385Z,27.95
2023-02-01T21:09:28.906Z,25.40
2023-02-01T21:11:59.772Z,27.15
2023-02-01T21:14:31.611Z,27.42
2023-02-01T21:17:03.065Z,29.95
2023-02-01T21:19:43.395Z,28.48
2023-02-01T21:22:14.436Z,27.85
2023-02-01T21:24:44.206Z,27.08
2023-02-01T21:27:14.580Z,25.83
2023-02-01T21:29:45.417Z,27.00
2023-02-01T21:32:19.934Z,27.40
2023-02-01T21:34:53.179Z,27.13
2023-02-01T21:37:26.117Z,27.08
2023-02-01T21:40:00.255Z,26.90
2023-02-01T21:42:31.053Z,25.92
2023-02-01T21:45:02.825Z,26.25
2023-02-01T21:47:32.536Z,24.73
2023-02-01T21:50:04.477Z,26.77
2023-02-01T21:52:35.539Z,26.20
2023-02-01T21:55:07.572Z,25.40
2023-02-01T21:57:36.201Z,24.83
2023-02-01T22:00:13.500Z,25.42
2023-02-01T22:02:44.243Z,23.08
2023-02-01T22:05:15.673Z,23.85
2023-02-01T22:07:45.193Z,23.52
2023-02-01T22:10:24.907Z,22.80
2023-02-01T22:12:54.711Z,21.88
2023-02-01T22:15:24.788Z,21.63
2023-02-01T22:17:54.279Z,21.60
2023-02-01T22:20:23.569Z,23.83
2023-02-01T22:22:51.625Z,22.92
2023-02-01T22:25:20.629Z,23.23
2023-02-01T22:28:32.866Z,24.25
2023-02-01T22:30:40.497Z,23.10
2023-02-01T22:33:08.349Z,24.17
2023-02-01T22:35:37.999Z,23.48
2023-02-01T22:38:06.288Z,23.88
2023-02-01T22:40:35.918Z,24.95
2023-02-01T22:43:04.741Z,23.80
2023-02-01T22:45:33.307Z,24.17
2023-02-01T22:48:01.085Z,25.35
2023-02-01T22:50:30.911Z,26.17
2023-02-01T22:52:59.203Z,25.90
2023-02-01T22:55:27.334Z,25.95
2023-02-01T22:57:55.539Z,25.35
2023-02-01T23:00:25.168Z,25.67
2023-02-01T23:02:53.573Z,25.95
2023-02-01T23:05:22.339Z,26.02
2023-02-01T23:07:50.904Z,26.35
2023-02-01T23:10:22.032Z,26.48
2023-02-01T23:12:50.216Z,25.48
2023-02-01T23:15:18.729Z,27.08
2023-02-01T23:17:47.029Z,26.25
2023-02-01T23:20:18.115Z,27.60
2023-02-01T23:22:49.329Z,25.83
2023-02-01T23:25:18.903Z,26.42
2023-02-01T23:27:47.585Z,26.05
2023-02-01T23:30:16.802Z,26.50
2023-02-01T23:32:44.824Z,25.20
2023-02-01T23:35:14.449Z,25.45
2023-02-01T23:37:42.288Z,24.65
2023-02-01T23:40:11.448Z,26.05
2023-02-01T23:42:40.335Z,25.30
2023-02-01T23:45:09.053Z,26.60
2023-02-01T23:47:36.882Z,25.95
2023-02-01T23:50:05.436Z,26.88
2023-02-01T23:52:33.464Z,24.38
2023-02-01T23:55:07.215Z,26.92
2023-02-01T23:57:35.217Z,25.48
